Oshawa Airport
CYOO : rendu visible

Aérodrome :











RETROUVEZ-NOUS SUR...

 
LOGIN :

S'inscrire | Disclaimer

   EN    FR    IT 

 









Légende :    VFR   VFR Marginal   IFR   IFR Intensif   IFR Très Intensif
Visi : 
Plafond : 
>= 8 km
>= 3000ft
5 à 8 km
1000 à 3000 ft
1500m à 5 km
500 à 1000 ft
800 à 1500m
200 à 500 ft
< 800m
< 200 ft
Symboles :   Orages  Brouillard  Fortes neiges  Fortes précipitations  Vent > 20 kt






- Altitude de l'aérodrome : 459 ft
- Code IATA : YOO


CYOO - Oshawa

DERNIER METAR :
  • 141600Z AUTO 35008KT 270V360 9SM FEW038 SCT049 BKN060 25/15 A3005 RMK SLP175 DENSITY ALT 1600FT

METARs EXPIRÉS :
  • 141500Z AUTO 32009KT 290V360 9SM FEW036 SCT055 25/16 A3005 RMK SLP175 DENSITY ALT 1500FT
  • 141400Z AUTO 30008KT 9SM CLR 24/16 A3003 RMK SLP171 DENSITY ALT 1400FT

TAF TAF CYOO
Valide du 14 à 14h jusqu'au 15 à 02h UTC


141339Z 1414/1502 32005KT P6SM FEW040
TEMPO 1414/1415 BKN040
FM141500 33006KT P6SM BKN040
BECMG 1417/1419 19006KT
FM142200 19005KT P6SM FEW050 RMK FCST BASED ON AUTO OBS. NXT FCST BY 142000Z
FIR CZYZ / Amérique du Nord



MET'MAP, la Météo Aéronautique d'un coup d'oeil ! - Copyright ORBIFLY Décembre 2007 - Disclaimer

ORBIFLY MET'MAP TEAM :

Programmation & Développement : Alexandra Zaïnal
Sur une idée originale de : Baudouin d'Aumeries
Assistance à la programmation : Marc-Olivier Méhu
Soutien technique & logistique : Manuel Goepfert

Contact : metmap@orbifly.com




SOURCES & CREDITS :

   NOAA       Earth
Advisory